Eggenfelden Airport


Codes: EDME/
Name: Eggenfelden Airport
City: Eggenfelden
Country: Germany
Elevation: 1342 ft.

Photos at Eggenfelden Airport


   Photos courtesy of SpottingLog. You can add your own sightings and photos by signing up for a free trial today.



No photos found.

Weather at Eggenfelden Airport


Time (UTC)DescriptionTempratureWindCloud coverageVisibilityPressureHumidity
25-Jun-2024 15:00Clear Sky27°C9 mph, E7%10000m1010hPa53%
25-Jun-2024 18:00Few Clouds24°C9 mph, NE21%10000m1009hPa64%
25-Jun-2024 21:00Overcast Clouds20°C11 mph, E91%10000m1009hPa70%
26-Jun-2024 00:00Broken Clouds16°C7 mph, E54%10000m1009hPa88%
26-Jun-2024 03:00Broken Clouds14°C4 mph, SE59%10000m1010hPa95%
26-Jun-2024 06:00Broken Clouds18°C4 mph, S67%10000m1011hPa85%
26-Jun-2024 09:00Light Rain23°C4 mph, SW72%10000m1010hPa73%
26-Jun-2024 12:00Light Rain26°C2 mph, SW74%10000m1009hPa63%
26-Jun-2024 15:00Light Rain26°C2 mph, N70%10000m1008hPa57%
26-Jun-2024 18:00Light Rain22°C4 mph, W41%10000m1008hPa81%
26-Jun-2024 21:00Light Rain17°C9 mph, SW16%10000m1010hPa97%
27-Jun-2024 00:00Light Rain16°C9 mph, W48%10000m1010hPa96%
27-Jun-2024 03:00Light Rain15°C4 mph, SW100%10000m1010hPa98%
27-Jun-2024 06:00Light Rain17°C7 mph, SW98%10000m1011hPa94%
27-Jun-2024 09:00Light Rain20°C7 mph, W90%10000m1011hPa84%
27-Jun-2024 12:00Light Rain24°C4 mph, W84%10000m1010hPa71%
27-Jun-2024 15:00Light Rain25°C4 mph, W87%10000m1011hPa69%
27-Jun-2024 18:00Light Rain22°C4 mph, W69%10000m1011hPa86%
27-Jun-2024 21:00Light Rain18°C7 mph, W78%10000m1013hPa94%
28-Jun-2024 00:00Light Rain17°C7 mph, SW68%10000m1014hPa97%
28-Jun-2024 03:00Light Rain16°C7 mph, SW36%10000m1015hPa98%
28-Jun-2024 06:00Broken Clouds19°C7 mph, SW53%10000m1016hPa90%
28-Jun-2024 09:00Broken Clouds25°C7 mph, W57%10000m1016hPa68%
28-Jun-2024 12:00Scattered Clouds27°C7 mph, W30%10000m1016hPa55%
28-Jun-2024 15:00Few Clouds28°C4 mph, W22%10000m1016hPa54%
28-Jun-2024 18:00Scattered Clouds25°C2 mph, NE34%10000m1016hPa75%
28-Jun-2024 21:00Broken Clouds20°C2 mph, SE69%10000m1017hPa89%
29-Jun-2024 00:00Broken Clouds19°C4 mph, E62%10000m1016hPa90%
29-Jun-2024 03:00Scattered Clouds18°C4 mph, E36%10000m1016hPa96%
29-Jun-2024 06:00Few Clouds22°C9 mph, E21%10000m1014hPa81%
29-Jun-2024 09:00Scattered Clouds27°C11 mph, E48%10000m1013hPa59%
29-Jun-2024 12:00Scattered Clouds30°C11 mph, E50%10000m1010hPa52%
29-Jun-2024 15:00Overcast Clouds31°C11 mph, E95%10000m1007hPa56%
29-Jun-2024 18:00Broken Clouds27°C11 mph, E60%10000m1004hPa66%
29-Jun-2024 21:00Scattered Clouds22°C4 mph, S31%10000m1004hPa82%
30-Jun-2024 00:00Light Rain17°C9 mph, W66%10000m1010hPa96%
30-Jun-2024 03:00Scattered Clouds16°C7 mph, SW35%10000m1011hPa98%
30-Jun-2024 06:00Broken Clouds18°C4 mph, SW62%10000m1011hPa90%
30-Jun-2024 09:00Overcast Clouds19°C4 mph, W100%10000m1012hPa87%
30-Jun-2024 12:00Overcast Clouds19°C4 mph, NW100%10000m1012hPa85%